sensor_id;sensor_type;location;lat;lon;timestamp;pressure;altitude;pressure_sealevel;temperature;humidity
73429;BME280;61643;49.564;17.412;2023-01-09T00:01:30;97237.03;;;5.21;100.00
73429;BME280;61643;49.564;17.412;2023-01-09T00:03:56;97239.63;;;5.16;100.00
73429;BME280;61643;49.564;17.412;2023-01-09T00:06:21;97240.66;;;5.15;100.00
73429;BME280;61643;49.564;17.412;2023-01-09T00:08:47;97239.22;;;5.24;100.00
73429;BME280;61643;49.564;17.412;2023-01-09T00:11:12;97228.22;;;5.20;100.00
73429;BME280;61643;49.564;17.412;2023-01-09T00:13:38;97213.69;;;5.11;100.00
73429;BME280;61643;49.564;17.412;2023-01-09T00:16:04;97209.97;;;5.12;100.00
73429;BME280;61643;49.564;17.412;2023-01-09T00:18:30;97227.34;;;5.15;100.00
73429;BME280;61643;49.564;17.412;2023-01-09T00:20:59;97228.63;;;5.12;100.00
73429;BME280;61643;49.564;17.412;2023-01-09T00:23:25;97232.84;;;5.08;100.00
73429;BME280;61643;49.564;17.412;2023-01-09T00:26:06;97223.66;;;4.99;100.00
73429;BME280;61643;49.564;17.412;2023-01-09T00:28:32;97234.34;;;4.99;100.00
73429;BME280;61643;49.564;17.412;2023-01-09T00:30:59;97253.22;;;4.97;100.00
73429;BME280;61643;49.564;17.412;2023-01-09T00:34:15;97260.91;;;4.94;100.00
73429;BME280;61643;49.564;17.412;2023-01-09T00:36:15;97227.66;;;4.80;100.00
73429;BME280;61643;49.564;17.412;2023-01-09T00:38:41;97216.25;;;4.68;100.00
73429;BME280;61643;49.564;17.412;2023-01-09T00:41:09;97223.94;;;4.64;100.00
73429;BME280;61643;49.564;17.412;2023-01-09T00:43:44;97228.56;;;4.52;100.00
73429;BME280;61643;49.564;17.412;2023-01-09T00:46:11;97236.59;;;4.57;100.00
73429;BME280;61643;49.564;17.412;2023-01-09T00:48:39;97221.91;;;4.55;100.00
73429;BME280;61643;49.564;17.412;2023-01-09T00:51:06;97206.88;;;4.48;100.00
73429;BME280;61643;49.564;17.412;2023-01-09T00:53:32;97203.66;;;4.46;100.00
73429;BME280;61643;49.564;17.412;2023-01-09T00:56:04;97203.03;;;4.39;100.00
73429;BME280;61643;49.564;17.412;2023-01-09T00:58:32;97202.13;;;4.51;100.00
73429;BME280;61643;49.564;17.412;2023-01-09T01:00:59;97213.66;;;4.56;100.00
73429;BME280;61643;49.564;17.412;2023-01-09T01:03:25;97219.31;;;4.60;100.00
73429;BME280;61643;49.564;17.412;2023-01-09T01:05:50;97231.59;;;4.61;100.00
73429;BME280;61643;49.564;17.412;2023-01-09T01:08:34;97238.38;;;4.35;100.00
73429;BME280;61643;49.564;17.412;2023-01-09T01:11:03;97231.19;;;4.35;100.00
73429;BME280;61643;49.564;17.412;2023-01-09T01:13:29;97223.19;;;4.35;100.00
73429;BME280;61643;49.564;17.412;2023-01-09T01:15:54;97208.34;;;4.39;100.00
73429;BME280;61643;49.564;17.412;2023-01-09T01:18:19;97200.44;;;4.44;100.00
73429;BME280;61643;49.564;17.412;2023-01-09T01:20:45;97198.34;;;4.30;100.00
73429;BME280;61643;49.564;17.412;2023-01-09T01:23:10;97183.00;;;4.37;100.00
73429;BME280;61643;49.564;17.412;2023-01-09T01:25:40;97188.66;;;4.40;100.00
73429;BME280;61643;49.564;17.412;2023-01-09T01:28:06;97175.81;;;4.37;100.00
73429;BME280;61643;49.564;17.412;2023-01-09T01:30:32;97166.13;;;4.31;100.00
73429;BME280;61643;49.564;17.412;2023-01-09T01:32:58;97159.97;;;4.31;100.00
73429;BME280;61643;49.564;17.412;2023-01-09T01:35:23;97150.78;;;4.38;100.00
73429;BME280;61643;49.564;17.412;2023-01-09T01:37:51;97141.19;;;4.37;100.00
73429;BME280;61643;49.564;17.412;2023-01-09T01:40:16;97133.44;;;4.36;100.00
73429;BME280;61643;49.564;17.412;2023-01-09T01:42:46;97118.66;;;4.45;100.00
73429;BME280;61643;49.564;17.412;2023-01-09T01:45:16;97121.25;;;4.40;100.00
73429;BME280;61643;49.564;17.412;2023-01-09T01:48:02;97119.56;;;4.34;100.00
73429;BME280;61643;49.564;17.412;2023-01-09T01:53:18;97108.00;;;4.28;100.00
73429;BME280;61643;49.564;17.412;2023-01-09T01:58:28;97096.31;;;4.29;100.00
73429;BME280;61643;49.564;17.412;2023-01-09T02:00:54;97089.69;;;4.32;100.00
73429;BME280;61643;49.564;17.412;2023-01-09T02:03:25;97071.78;;;4.27;100.00
73429;BME280;61643;49.564;17.412;2023-01-09T02:05:51;97070.41;;;4.25;100.00
73429;BME280;61643;49.564;17.412;2023-01-09T02:08:16;97060.16;;;4.33;100.00
73429;BME280;61643;49.564;17.412;2023-01-09T02:10:42;97054.66;;;4.23;100.00
73429;BME280;61643;49.564;17.412;2023-01-09T02:13:10;97053.13;;;4.27;100.00
73429;BME280;61643;49.564;17.412;2023-01-09T02:16:14;97041.25;;;4.35;98.96
73429;BME280;61643;49.564;17.412;2023-01-09T02:19:09;97045.34;;;4.42;98.78
73429;BME280;61643;49.564;17.412;2023-01-09T02:30:31;97012.47;;;4.54;98.30
73429;BME280;61643;49.564;17.412;2023-01-09T02:41:06;96990.59;;;4.73;96.96
73429;BME280;61643;49.564;17.412;2023-01-09T02:43:33;96987.13;;;4.73;96.60
73429;BME280;61643;49.564;17.412;2023-01-09T02:45:59;96980.47;;;4.75;97.68
73429;BME280;61643;49.564;17.412;2023-01-09T02:48:24;96977.81;;;4.75;97.56
73429;BME280;61643;49.564;17.412;2023-01-09T02:59:25;96975.38;;;4.95;97.59
73429;BME280;61643;49.564;17.412;2023-01-09T03:01:56;96973.81;;;5.00;97.91
73429;BME280;61643;49.564;17.412;2023-01-09T03:07:33;96956.31;;;5.09;97.34
73429;BME280;61643;49.564;17.412;2023-01-09T03:09:56;96953.44;;;5.15;97.85
73429;BME280;61643;49.564;17.412;2023-01-09T03:12:25;96953.22;;;5.22;98.01
73429;BME280;61643;49.564;17.412;2023-01-09T03:14:57;96942.31;;;5.23;98.01
73429;BME280;61643;49.564;17.412;2023-01-09T03:17:41;96938.88;;;5.28;98.18
73429;BME280;61643;49.564;17.412;2023-01-09T03:20:09;96930.66;;;5.34;98.27
73429;BME280;61643;49.564;17.412;2023-01-09T03:22:38;96924.59;;;5.44;97.45
73429;BME280;61643;49.564;17.412;2023-01-09T03:25:04;96917.69;;;5.48;97.84
73429;BME280;61643;49.564;17.412;2023-01-09T03:27:29;96911.59;;;5.53;97.76
73429;BME280;61643;49.564;17.412;2023-01-09T03:29:55;96898.78;;;5.55;98.10
73429;BME280;61643;49.564;17.412;2023-01-09T03:32:20;96898.50;;;5.51;98.36
73429;BME280;61643;49.564;17.412;2023-01-09T03:34:46;96893.72;;;5.53;98.19
73429;BME280;61643;49.564;17.412;2023-01-09T03:37:11;96885.22;;;5.61;98.68
73429;BME280;61643;49.564;17.412;2023-01-09T03:39:37;96881.25;;;5.69;98.24
73429;BME280;61643;49.564;17.412;2023-01-09T03:42:02;96881.31;;;5.74;98.21
73429;BME280;61643;49.564;17.412;2023-01-09T03:44:27;96875.19;;;5.78;98.17
73429;BME280;61643;49.564;17.412;2023-01-09T03:46:53;96872.28;;;5.85;98.17
73429;BME280;61643;49.564;17.412;2023-01-09T03:49:18;96860.25;;;5.82;98.48
73429;BME280;61643;49.564;17.412;2023-01-09T03:51:44;96867.78;;;5.90;97.96
73429;BME280;61643;49.564;17.412;2023-01-09T03:54:09;96852.34;;;5.92;98.34
73429;BME280;61643;49.564;17.412;2023-01-09T03:56:34;96847.84;;;6.03;97.40
73429;BME280;61643;49.564;17.412;2023-01-09T03:59:00;96853.75;;;6.15;97.85
73429;BME280;61643;49.564;17.412;2023-01-09T04:01:25;96846.81;;;6.14;98.13
73429;BME280;61643;49.564;17.412;2023-01-09T04:03:50;96831.88;;;6.18;97.31
73429;BME280;61643;49.564;17.412;2023-01-09T04:06:16;96831.06;;;6.18;97.45
73429;BME280;61643;49.564;17.412;2023-01-09T04:08:41;96832.16;;;6.27;97.50
73429;BME280;61643;49.564;17.412;2023-01-09T04:11:06;96840.44;;;6.30;97.47
73429;BME280;61643;49.564;17.412;2023-01-09T04:13:32;96834.59;;;6.38;96.86
73429;BME280;61643;49.564;17.412;2023-01-09T04:15:58;96836.75;;;6.36;97.47
73429;BME280;61643;49.564;17.412;2023-01-09T04:18:23;96838.88;;;6.39;96.64
73429;BME280;61643;49.564;17.412;2023-01-09T04:20:49;96835.66;;;6.37;96.93
73429;BME280;61643;49.564;17.412;2023-01-09T04:23:14;96835.66;;;6.37;96.50
73429;BME280;61643;49.564;17.412;2023-01-09T04:25:40;96851.69;;;6.37;97.67
73429;BME280;61643;49.564;17.412;2023-01-09T04:28:05;96850.63;;;6.38;96.90
73429;BME280;61643;49.564;17.412;2023-01-09T04:30:31;96848.50;;;6.35;97.25
73429;BME280;61643;49.564;17.412;2023-01-09T04:32:56;96839.13;;;6.33;97.83
73429;BME280;61643;49.564;17.412;2023-01-09T04:35:22;96840.72;;;6.34;97.46
73429;BME280;61643;49.564;17.412;2023-01-09T04:37:47;96832.44;;;6.35;97.55
73429;BME280;61643;49.564;17.412;2023-01-09T04:40:13;96837.81;;;6.35;97.50
73429;BME280;61643;49.564;17.412;2023-01-09T04:42:40;96831.91;;;6.38;98.10
73429;BME280;61643;49.564;17.412;2023-01-09T04:45:07;96832.97;;;6.37;97.69
73429;BME280;61643;49.564;17.412;2023-01-09T04:47:33;96833.25;;;6.36;98.23
73429;BME280;61643;49.564;17.412;2023-01-09T04:49:59;96831.66;;;6.40;97.04
73429;BME280;61643;49.564;17.412;2023-01-09T04:52:24;96827.66;;;6.42;97.71
73429;BME280;61643;49.564;17.412;2023-01-09T04:54:50;96825.25;;;6.46;97.17
73429;BME280;61643;49.564;17.412;2023-01-09T04:57:16;96827.66;;;6.42;97.67
73429;BME280;61643;49.564;17.412;2023-01-09T04:59:41;96831.38;;;6.41;97.86
73429;BME280;61643;49.564;17.412;2023-01-09T05:02:07;96836.72;;;6.41;97.96
73429;BME280;61643;49.564;17.412;2023-01-09T05:04:32;96831.38;;;6.41;97.78
73429;BME280;61643;49.564;17.412;2023-01-09T05:06:58;96835.69;;;6.42;98.35
73429;BME280;61643;49.564;17.412;2023-01-09T05:09:23;96833.00;;;6.42;98.14
73429;BME280;61643;49.564;17.412;2023-01-09T05:11:49;96827.66;;;6.42;98.46
73429;BME280;61643;49.564;17.412;2023-01-09T05:14:15;96834.34;;;6.40;99.20
73429;BME280;61643;49.564;17.412;2023-01-09T05:16:40;96838.06;;;6.39;99.44
73429;BME280;61643;49.564;17.412;2023-01-09T05:19:06;96828.72;;;6.36;100.00
73429;BME280;61643;49.564;17.412;2023-01-09T05:21:31;96836.19;;;6.34;99.83
73429;BME280;61643;49.564;17.412;2023-01-09T05:23:57;96839.91;;;6.33;100.00
73429;BME280;61643;49.564;17.412;2023-01-09T05:26:22;96841.53;;;6.34;100.00
73429;BME280;61643;49.564;17.412;2023-01-09T05:28:52;96837.25;;;6.33;100.00
73429;BME280;61643;49.564;17.412;2023-01-09T05:31:20;96837.81;;;6.35;100.00
73429;BME280;61643;49.564;17.412;2023-01-09T05:33:45;96835.38;;;6.29;100.00
73429;BME280;61643;49.564;17.412;2023-01-09T05:36:11;96840.94;;;6.22;100.00
73429;BME280;61643;49.564;17.412;2023-01-09T05:38:36;96841.50;;;6.29;100.00
73429;BME280;61643;49.564;17.412;2023-01-09T05:41:02;96841.25;;;6.31;100.00
73429;BME280;61643;49.564;17.412;2023-01-09T05:43:28;96832.97;;;6.27;100.00
73429;BME280;61643;49.564;17.412;2023-01-09T05:45:53;96839.38;;;6.31;100.00
73429;BME280;61643;49.564;17.412;2023-01-09T05:48:18;96821.75;;;6.30;100.00
73429;BME280;61643;49.564;17.412;2023-01-09T05:50:44;96838.06;;;6.34;100.00
73429;BME280;61643;49.564;17.412;2023-01-09T05:53:09;96825.50;;;6.34;100.00
73429;BME280;61643;49.564;17.412;2023-01-09T05:55:34;96823.63;;;6.35;100.00
73429;BME280;61643;49.564;17.412;2023-01-09T05:58:00;96824.44;;;6.35;100.00
73429;BME280;61643;49.564;17.412;2023-01-09T06:00:26;96821.75;;;6.35;100.00
73429;BME280;61643;49.564;17.412;2023-01-09T06:02:51;96827.63;;;6.37;100.00
73429;BME280;61643;49.564;17.412;2023-01-09T06:05:16;96829.00;;;6.40;100.00
73429;BME280;61643;49.564;17.412;2023-01-09T06:07:42;96829.78;;;6.40;100.00
73429;BME280;61643;49.564;17.412;2023-01-09T06:10:10;96831.13;;;6.38;100.00
73429;BME280;61643;49.564;17.412;2023-01-09T06:12:36;96822.84;;;6.39;100.00
73429;BME280;61643;49.564;17.412;2023-01-09T06:15:01;96829.28;;;6.43;100.00
73429;BME280;61643;49.564;17.412;2023-01-09T06:17:27;96829.53;;;6.42;100.00
73429;BME280;61643;49.564;17.412;2023-01-09T06:19:52;96831.66;;;6.40;100.00
73429;BME280;61643;49.564;17.412;2023-01-09T06:22:18;96829.53;;;6.42;100.00
73429;BME280;61643;49.564;17.412;2023-01-09T06:24:43;96825.78;;;6.38;100.00
73429;BME280;61643;49.564;17.412;2023-01-09T06:27:08;96820.69;;;6.41;100.00
73429;BME280;61643;49.564;17.412;2023-01-09T06:29:34;96814.03;;;6.39;100.00
73429;BME280;61643;49.564;17.412;2023-01-09T06:31:59;96826.03;;;6.41;100.00
73429;BME280;61643;49.564;17.412;2023-01-09T06:34:24;96815.34;;;6.41;100.00
73429;BME280;61643;49.564;17.412;2023-01-09T06:36:50;96821.25;;;6.43;100.00
73429;BME280;61643;49.564;17.412;2023-01-09T06:39:15;96819.91;;;6.41;100.00
73429;BME280;61643;49.564;17.412;2023-01-09T06:41:40;96816.16;;;6.42;100.00
73429;BME280;61643;49.564;17.412;2023-01-09T06:44:06;96820.19;;;6.39;100.00
73429;BME280;61643;49.564;17.412;2023-01-09T06:46:31;96817.75;;;6.33;100.00
73429;BME280;61643;49.564;17.412;2023-01-09T06:48:56;96822.84;;;6.39;100.00
73429;BME280;61643;49.564;17.412;2023-01-09T06:51:22;96827.91;;;6.41;100.00
73429;BME280;61643;49.564;17.412;2023-01-09T06:53:47;96821.22;;;6.38;100.00
73429;BME280;61643;49.564;17.412;2023-01-09T06:56:13;96823.66;;;6.40;100.00
73429;BME280;61643;49.564;17.412;2023-01-09T06:58:38;96828.72;;;6.41;100.00
73429;BME280;61643;49.564;17.412;2023-01-09T07:01:03;96828.72;;;6.41;100.00
73429;BME280;61643;49.564;17.412;2023-01-09T07:03:29;96823.13;;;6.43;100.00
73429;BME280;61643;49.564;17.412;2023-01-09T07:05:54;96817.22;;;6.41;100.00
73429;BME280;61643;49.564;17.412;2023-01-09T07:08:20;96812.97;;;6.40;100.00
73429;BME280;61643;49.564;17.412;2023-01-09T07:10:46;96810.03;;;6.36;100.00
73429;BME280;61643;49.564;17.412;2023-01-09T07:13:11;96810.03;;;6.36;100.00
73429;BME280;61643;49.564;17.412;2023-01-09T07:15:36;96817.50;;;6.39;100.00
73429;BME280;61643;49.564;17.412;2023-01-09T07:18:02;96802.78;;;6.37;100.00
73429;BME280;61643;49.564;17.412;2023-01-09T07:20:27;96806.81;;;6.39;100.00
73429;BME280;61643;49.564;17.412;2023-01-09T07:22:53;96807.88;;;6.38;100.00
73429;BME280;61643;49.564;17.412;2023-01-09T07:25:18;96804.94;;;6.40;100.00
73429;BME280;61643;49.564;17.412;2023-01-09T07:27:44;96807.91;;;6.43;100.00
73429;BME280;61643;49.564;17.412;2023-01-09T07:30:09;96799.59;;;6.45;100.00
73429;BME280;61643;49.564;17.412;2023-01-09T07:32:35;96801.47;;;6.44;100.00
73429;BME280;61643;49.564;17.412;2023-01-09T07:35:02;96798.25;;;6.42;100.00
73429;BME280;61643;49.564;17.412;2023-01-09T07:37:28;96802.56;;;6.43;100.00
73429;BME280;61643;49.564;17.412;2023-01-09T07:39:53;96800.94;;;6.42;100.00
73429;BME280;61643;49.564;17.412;2023-01-09T07:42:19;96796.13;;;6.39;100.00
73429;BME280;61643;49.564;17.412;2023-01-09T07:44:44;96803.59;;;6.42;100.00
73429;BME280;61643;49.564;17.412;2023-01-09T07:47:09;96802.56;;;6.43;100.00
73429;BME280;61643;49.564;17.412;2023-01-09T07:49:35;96803.88;;;6.46;100.00
73429;BME280;61643;49.564;17.412;2023-01-09T07:52:00;96804.41;;;6.48;100.00
73429;BME280;61643;49.564;17.412;2023-01-09T07:54:25;96804.94;;;6.45;100.00
73429;BME280;61643;49.564;17.412;2023-01-09T07:56:51;96800.16;;;6.47;100.00
73429;BME280;61643;49.564;17.412;2023-01-09T07:59:16;96799.88;;;6.49;100.00
73429;BME280;61643;49.564;17.412;2023-01-09T08:01:42;96798.25;;;6.48;100.00
73429;BME280;61643;49.564;17.412;2023-01-09T08:04:07;96789.19;;;6.43;100.00
73429;BME280;61643;49.564;17.412;2023-01-09T08:06:32;96800.94;;;6.48;100.00
73429;BME280;61643;49.564;17.412;2023-01-09T08:08:58;96811.38;;;6.49;100.00
73429;BME280;61643;49.564;17.412;2023-01-09T08:11:24;96806.53;;;6.51;100.00
73429;BME280;61643;49.564;17.412;2023-01-09T08:13:49;96808.97;;;6.53;100.00
73429;BME280;61643;49.564;17.412;2023-01-09T08:16:15;96804.69;;;6.52;100.00
73429;BME280;61643;49.564;17.412;2023-01-09T08:18:41;96800.69;;;6.49;100.00
73429;BME280;61643;49.564;17.412;2023-01-09T08:21:06;96803.34;;;6.49;100.00
73429;BME280;61643;49.564;17.412;2023-01-09T08:23:32;96807.63;;;6.55;100.00
73429;BME280;61643;49.564;17.412;2023-01-09T08:25:57;96811.88;;;6.51;100.00
73429;BME280;61643;49.564;17.412;2023-01-09T08:28:23;96811.09;;;6.56;100.00
73429;BME280;61643;49.564;17.412;2023-01-09T08:30:48;96809.78;;;6.58;100.00
73429;BME280;61643;49.564;17.412;2023-01-09T08:33:14;96819.66;;;6.53;100.00
73429;BME280;61643;49.564;17.412;2023-01-09T08:35:39;96816.72;;;6.54;100.00
73429;BME280;61643;49.564;17.412;2023-01-09T08:38:04;96819.69;;;6.58;100.00
73429;BME280;61643;49.564;17.412;2023-01-09T08:40:30;96825.00;;;6.63;100.00
73429;BME280;61643;49.564;17.412;2023-01-09T08:42:55;96817.53;;;6.65;100.00
73429;BME280;61643;49.564;17.412;2023-01-09T08:45:39;96812.72;;;6.67;100.00
73429;BME280;61643;49.564;17.412;2023-01-09T08:48:23;96818.34;;;6.65;100.00
73429;BME280;61643;49.564;17.412;2023-01-09T08:50:48;96823.16;;;6.68;100.00
73429;BME280;61643;49.564;17.412;2023-01-09T08:53:14;96830.66;;;6.71;100.00
73429;BME280;61643;49.564;17.412;2023-01-09T08:55:40;96835.72;;;6.73;100.00
73429;BME280;61643;49.564;17.412;2023-01-09T08:58:06;96838.38;;;6.73;100.00
73429;BME280;61643;49.564;17.412;2023-01-09T09:00:31;96836.53;;;6.73;100.00
73429;BME280;61643;49.564;17.412;2023-01-09T09:02:58;96841.63;;;6.75;100.00
73429;BME280;61643;49.564;17.412;2023-01-09T09:05:25;96841.38;;;6.76;100.00
73429;BME280;61643;49.564;17.412;2023-01-09T09:07:52;96840.56;;;6.76;100.00
73429;BME280;61643;49.564;17.412;2023-01-09T09:10:22;96846.72;;;6.76;100.00
73429;BME280;61643;49.564;17.412;2023-01-09T09:12:49;96848.84;;;6.79;100.00
73429;BME280;61643;49.564;17.412;2023-01-09T09:15:15;96848.28;;;6.77;100.00
73429;BME280;61643;49.564;17.412;2023-01-09T09:17:44;96848.56;;;6.81;100.00
73429;BME280;61643;49.564;17.412;2023-01-09T09:20:10;96851.25;;;6.81;100.00
73429;BME280;61643;49.564;17.412;2023-01-09T09:22:36;96848.84;;;6.79;100.00
73429;BME280;61643;49.564;17.412;2023-01-09T09:25:02;96852.59;;;6.83;100.00
73429;BME280;61643;49.564;17.412;2023-01-09T09:27:29;96850.69;;;6.84;100.00
73429;BME280;61643;49.564;17.412;2023-01-09T09:29:55;96849.13;;;6.83;100.00
73429;BME280;61643;49.564;17.412;2023-01-09T09:32:20;96854.72;;;6.81;100.00
73429;BME280;61643;49.564;17.412;2023-01-09T09:34:46;96854.47;;;6.83;100.00
73429;BME280;61643;49.564;17.412;2023-01-09T09:37:11;96867.03;;;6.82;100.00
73429;BME280;61643;49.564;17.412;2023-01-09T09:39:36;96863.31;;;6.83;100.00
73429;BME280;61643;49.564;17.412;2023-01-09T09:53:02;96861.16;;;6.85;100.00
73429;BME280;61643;49.564;17.412;2023-01-09T09:55:37;96858.72;;;6.84;100.00
73429;BME280;61643;49.564;17.412;2023-01-09T09:58:23;96863.81;;;6.85;100.00
73429;BME280;61643;49.564;17.412;2023-01-09T10:00:53;96856.59;;;6.86;100.00
73429;BME280;61643;49.564;17.412;2023-01-09T10:03:31;96855.81;;;6.85;100.00
73429;BME280;61643;49.564;17.412;2023-01-09T10:06:05;96855.00;;;6.90;100.00
73429;BME280;61643;49.564;17.412;2023-01-09T10:08:48;96854.75;;;6.86;100.00
73429;BME280;61643;49.564;17.412;2023-01-09T10:11:36;96856.59;;;6.91;100.00
73429;BME280;61643;49.564;17.412;2023-01-09T10:14:03;96861.69;;;6.92;100.00
73429;BME280;61643;49.564;17.412;2023-01-09T10:16:48;96860.63;;;6.93;100.00
73429;BME280;61643;49.564;17.412;2023-01-09T10:30:43;96852.09;;;7.02;100.00
73429;BME280;61643;49.564;17.412;2023-01-09T10:38:44;96855.03;;;7.05;100.00
73429;BME280;61643;49.564;17.412;2023-01-09T10:41:21;96851.53;;;7.05;100.00
73429;BME280;61643;49.564;17.412;2023-01-09T10:46:22;96855.81;;;7.01;100.00
73429;BME280;61643;49.564;17.412;2023-01-09T10:48:53;96852.84;;;7.02;100.00
73429;BME280;61643;49.564;17.412;2023-01-09T10:51:26;96859.31;;;7.01;100.00
73429;BME280;61643;49.564;17.412;2023-01-09T10:53:55;96865.19;;;7.03;100.00
73429;BME280;61643;49.564;17.412;2023-01-09T10:56:27;96859.03;;;7.03;100.00
73429;BME280;61643;49.564;17.412;2023-01-09T10:58:54;96859.81;;;7.03;100.00
73429;BME280;61643;49.564;17.412;2023-01-09T11:01:40;96860.38;;;7.00;100.00
73429;BME280;61643;49.564;17.412;2023-01-09T11:04:18;96864.63;;;6.96;100.00
73429;BME280;61643;49.564;17.412;2023-01-09T11:07:09;96861.44;;;6.94;100.00
73429;BME280;61643;49.564;17.412;2023-01-09T11:09:57;96870.25;;;6.89;100.00
73429;BME280;61643;49.564;17.412;2023-01-09T11:12:26;96869.44;;;6.84;100.00
73429;BME280;61643;49.564;17.412;2023-01-09T11:14:51;96859.25;;;6.81;100.00
73429;BME280;61643;49.564;17.412;2023-01-09T11:17:19;96865.69;;;6.75;100.00
73429;BME280;61643;49.564;17.412;2023-01-09T11:20:14;96867.53;;;6.69;100.00
73429;BME280;61643;49.564;17.412;2023-01-09T11:22:50;96875.00;;;6.62;100.00
73429;BME280;61643;49.564;17.412;2023-01-09T11:25:18;96865.94;;;6.58;100.00
73429;BME280;61643;49.564;17.412;2023-01-09T11:28:03;96869.63;;;6.52;100.00
73429;BME280;61643;49.564;17.412;2023-01-09T11:30:30;96863.22;;;6.48;100.00
73429;BME280;61643;49.564;17.412;2023-01-09T11:32:58;96870.41;;;6.48;100.00
73429;BME280;61643;49.564;17.412;2023-01-09T11:35:34;96859.25;;;6.61;100.00
73429;BME280;61643;49.564;17.412;2023-01-09T11:38:03;96863.53;;;6.62;100.00
73429;BME280;61643;49.564;17.412;2023-01-09T11:40:36;96857.09;;;6.58;100.00
73429;BME280;61643;49.564;17.412;2023-01-09T11:45:43;96857.59;;;6.50;100.00
73429;BME280;61643;49.564;17.412;2023-01-09T11:48:37;96858.41;;;6.40;100.00
73429;BME280;61643;49.564;17.412;2023-01-09T11:51:15;96865.06;;;6.48;100.00
73429;BME280;61643;49.564;17.412;2023-01-09T11:53:51;96857.06;;;6.48;100.00
73429;BME280;61643;49.564;17.412;2023-01-09T11:56:18;96853.06;;;6.50;100.00
73429;BME280;61643;49.564;17.412;2023-01-09T11:58:43;96838.06;;;6.44;100.00
73429;BME280;61643;49.564;17.412;2023-01-09T12:04:13;96835.16;;;6.46;100.00
73429;BME280;61643;49.564;17.412;2023-01-09T12:09:29;96839.44;;;6.47;100.00
73429;BME280;61643;49.564;17.412;2023-01-09T12:12:07;96839.44;;;6.47;100.00
73429;BME280;61643;49.564;17.412;2023-01-09T12:34:55;96841.81;;;6.48;100.00
73429;BME280;61643;49.564;17.412;2023-01-09T12:37:48;96842.91;;;6.47;100.00
73429;BME280;61643;49.564;17.412;2023-01-09T12:40:37;96848.78;;;6.49;100.00
73429;BME280;61643;49.564;17.412;2023-01-09T12:46:09;96888.06;;;6.43;100.00
73429;BME280;61643;49.564;17.412;2023-01-09T12:53:57;96893.88;;;6.30;100.00
73429;BME280;61643;49.564;17.412;2023-01-09T12:56:28;96902.19;;;6.29;100.00
73429;BME280;61643;49.564;17.412;2023-01-09T12:59:23;96909.88;;;6.20;100.00
73429;BME280;61643;49.564;17.412;2023-01-09T13:02:02;96917.03;;;6.10;100.00
73429;BME280;61643;49.564;17.412;2023-01-09T13:04:36;96913.81;;;6.03;100.00
73429;BME280;61643;49.564;17.412;2023-01-09T13:07:11;96926.31;;;5.97;100.00
73429;BME280;61643;49.564;17.412;2023-01-09T13:09:55;96930.06;;;5.96;100.00
73429;BME280;61643;49.564;17.412;2023-01-09T13:12:24;96926.81;;;5.94;100.00
73429;BME280;61643;49.564;17.412;2023-01-09T13:15:04;96918.56;;;5.96;100.00
73429;BME280;61643;49.564;17.412;2023-01-09T13:17:41;96911.31;;;5.86;100.00
73429;BME280;61643;49.564;17.412;2023-01-09T13:20:20;96921.16;;;5.85;100.00
73429;BME280;61643;49.564;17.412;2023-01-09T13:22:48;96922.44;;;5.78;100.00
73429;BME280;61643;49.564;17.412;2023-01-09T13:28:12;96947.75;;;5.70;100.00
73429;BME280;61643;49.564;17.412;2023-01-09T13:35:47;96949.28;;;5.61;100.00
73429;BME280;61643;49.564;17.412;2023-01-09T13:38:17;96952.22;;;5.65;100.00
73429;BME280;61643;49.564;17.412;2023-01-09T13:40:43;96950.34;;;5.60;100.00
73429;BME280;61643;49.564;17.412;2023-01-09T13:43:09;96956.78;;;5.64;100.00
73429;BME280;61643;49.564;17.412;2023-01-09T13:45:36;96952.72;;;5.57;100.00
73429;BME280;61643;49.564;17.412;2023-01-09T13:50:42;96961.81;;;5.61;100.00
73429;BME280;61643;49.564;17.412;2023-01-09T14:07:13;96960.38;;;5.48;100.00
73429;BME280;61643;49.564;17.412;2023-01-09T14:09:46;96967.84;;;5.46;100.00
73429;BME280;61643;49.564;17.412;2023-01-09T14:12:14;96971.06;;;5.48;100.00
73429;BME280;61643;49.564;17.412;2023-01-09T14:14:44;96978.31;;;5.53;100.00
73429;BME280;61643;49.564;17.412;2023-01-09T14:17:22;96994.31;;;5.53;100.00
73429;BME280;61643;49.564;17.412;2023-01-09T14:19:54;97006.00;;;5.46;100.00
73429;BME280;61643;49.564;17.412;2023-01-09T14:22:32;97004.66;;;5.44;100.00
73429;BME280;61643;49.564;17.412;2023-01-09T14:25:12;96997.75;;;5.48;100.00
73429;BME280;61643;49.564;17.412;2023-01-09T14:33:23;97002.50;;;5.41;100.00
73429;BME280;61643;49.564;17.412;2023-01-09T14:36:17;96996.09;;;5.42;100.00
73429;BME280;61643;49.564;17.412;2023-01-09T14:38:51;96991.00;;;5.40;100.00
73429;BME280;61643;49.564;17.412;2023-01-09T14:41:31;97000.13;;;5.44;100.00
73429;BME280;61643;49.564;17.412;2023-01-09T14:44:26;96998.00;;;5.46;100.00
73429;BME280;61643;49.564;17.412;2023-01-09T14:46:53;96996.91;;;5.42;100.00
73429;BME280;61643;49.564;17.412;2023-01-09T14:49:40;96996.59;;;5.39;100.00
73429;BME280;61643;49.564;17.412;2023-01-09T14:52:28;97001.09;;;5.33;100.00
73429;BME280;61643;49.564;17.412;2023-01-09T14:54:58;97020.06;;;5.37;100.00
73429;BME280;61643;49.564;17.412;2023-01-09T14:57:30;97015.22;;;5.34;100.00
73429;BME280;61643;49.564;17.412;2023-01-09T15:02:33;97011.22;;;5.31;100.00
73429;BME280;61643;49.564;17.412;2023-01-09T15:05:05;97010.66;;;5.29;100.00
73429;BME280;61643;49.564;17.412;2023-01-09T15:07:33;97005.38;;;5.34;100.00
73429;BME280;61643;49.564;17.412;2023-01-09T15:10:05;97009.09;;;5.33;100.00
73429;BME280;61643;49.564;17.412;2023-01-09T15:12:31;97010.66;;;5.29;100.00
73429;BME280;61643;49.564;17.412;2023-01-09T15:14:59;97011.44;;;5.30;100.00
73429;BME280;61643;49.564;17.412;2023-01-09T15:17:30;97015.44;;;5.27;100.00